Federal Oshima — VRVY8 — position and weather

sailwx.info

Track history (hours):
 
Tides and Currents Weather Stations Pressure Air Temp Water Temp Dewpoint Dewpoint Depression Visibility Wind Speed Wind Dir Waves Ship Positions

Federal Oshima

Last reported at 2015-Aug-24 22:16 UTC. Time now 2015-Aug-27 21:27 UTC.
Position N 37°55' E 017°25'.

Length 200 m; draft 8.1 m.

Type: Cargo ship. MMSI: 477675000.

Date/timePositionNaut miles runAvg speedWind from/ knotsBaromVisibWave heightAir tempDewpointWater temp
2015-Aug-24 22:16N 37°55' E 017°25'2111.9
2015-Aug-24 20:32N 37°43' E 017°04'1812.8
2015-Aug-24 19:06N 37°33' E 016°44'3312.6
2015-Aug-24 16:32N 37°11' E 016°14'1313.1
2015-Aug-24 15:33N 37°02' E 016°03'1313.2
2015-Aug-24 14:33N 36°52' E 015°52'1312.9
2015-Aug-24 13:32N 36°41' E 015°43'2812.5
2015-Aug-24 11:18N 36°20' E 015°20'912.7
2015-Aug-24 10:33N 36°19' E 015°08'1313.3
2015-Aug-24 09:33N 36°19' E 014°52'1312.6
2015-Aug-24 08:32N 36°20' E 014°36'1212.1
2015-Aug-24 07:33N 36°22' E 014°21'1212.2
2015-Aug-24 06:33N 36°25' E 014°06'1212.4
2015-Aug-24 05:33N 36°29' E 013°52'1312.7
2015-Aug-24 04:33N 36°33' E 013°37'1312.7
2015-Aug-24 03:33N 36°37' E 013°22'1312.7
2015-Aug-24 02:33N 36°40' E 013°07'1312.6
2015-Aug-24 01:33N 36°44' E 012°52'1312.9
2015-Aug-24 00:33N 36°49' E 012°37'1313.1
2015-Aug-23 23:33N 36°53' E 012°21'1312.9
2015-Aug-23 22:33N 36°56' E 012°06'1212.3
2015-Aug-23 21:33N 37°03' E 011°53'1212.2
2015-Aug-23 20:33N 37°10' E 011°40'1312.1
2015-Aug-23 19:30N 37°16' E 011°26'1111.9
2015-Aug-23 18:33N 37°21' E 011°13'1211.9
2015-Aug-23 17:33N 37°27' E 011°00'1212.0
2015-Aug-23 16:33N 37°30' E 010°45'1212.1
2015-Aug-23 15:33N 37°32' E 010°30'11813.0
2015-Aug-23 06:31N 37°36' E 008°02'1212.4
2015-Aug-23 05:31N 37°34' E 007°47'9712.1
2015-Aug-22 21:31N 37°23' E 005°46'1212.2
2015-Aug-22 20:33N 37°21' E 005°31'1712.0
2015-Aug-22 19:11N 37°19' E 005°10'2012.1
2015-Aug-22 17:33N 37°17' E 004°46'1211.9
2015-Aug-22 16:31N 37°15' E 004°30'1211.8
2015-Aug-22 15:31N 37°13' E 004°16'1212.0
2015-Aug-22 14:33N 37°12' E 004°01'1211.9
2015-Aug-22 13:33N 37°10' E 003°47'1512.2
2015-Aug-22 12:18N 37°08' E 003°28'912.2
2015-Aug-22 11:33N 37°07' E 003°16'1313.3
2015-Aug-22 10:33N 37°05' E 002°60'1212.2
2015-Aug-22 09:33N 37°03' E 002°45'1212.1
2015-Aug-22 08:33N 37°01' E 002°30'1311.9
2015-Aug-22 07:28N 36°59' E 002°14'1111.5
2015-Aug-22 06:33N 36°57' E 002°01'1111.4
2015-Aug-22 05:33N 36°55' E 001°47'1111.3
2015-Aug-22 04:33N 36°53' E 001°33'1111.4
2015-Aug-22 03:33N 36°51' E 001°19'1311.9
2015-Aug-22 02:26N 36°48' E 001°02'1112.3
2015-Aug-22 01:33N 36°47' E 000°49'1312.7
2015-Aug-22 00:33N 36°44' E 000°33'1211.8
2015-Aug-21 23:33N 36°43' E 000°19'1211.7
2015-Aug-21 22:33N 36°41' E 000°04'1211.8
2015-Aug-21 21:31N 36°39' W 000°11'1111.7
2015-Aug-21 20:33N 36°37' W 000°24'1311.8
2015-Aug-21 19:29N 36°34' W 000°40'1111.5
2015-Aug-21 18:33N 36°32' W 000°53'1111.5
2015-Aug-21 17:33N 36°31' W 001°07'1211.2
2015-Aug-21 16:29N 36°28' W 001°22'2311.4
2015-Aug-21 14:27N 36°24' W 001°50'3411.0
2015-Aug-21 11:21N 36°19' W 002°32'37111.7
2015-Aug-20 03:32N 36°09' W 010°11'1111.6
2015-Aug-20 02:33N 36°18' W 010°03'1010.0
2015-Aug-20 01:33N 36°27' W 010°09'1212.5
2015-Aug-20 00:33N 36°34' W 010°22'1312.5
2015-Aug-19 23:33N 36°41' W 010°35'1312.3
2015-Aug-19 22:30N 36°48' W 010°48'1212.2
2015-Aug-19 21:32N 36°55' W 010°60'1212.3
2015-Aug-19 20:33N 37°02' W 011°13'1211.8
2015-Aug-19 19:33N 37°08' W 011°25'1211.9
2015-Aug-19 18:33N 37°15' W 011°37'1211.9
2015-Aug-19 17:33N 37°22' W 011°49'1211.8
2015-Aug-19 16:33N 37°30' W 012°01'1211.8
2015-Aug-19 15:33N 37°36' W 012°13'1111.4
2015-Aug-19 14:33N 37°42' W 012°25'11011.8
2015-Aug-19 05:15N 38°44' W 014°20'  
Track history (hours):
 
Tides and Currents Weather Stations Pressure Air Temp Water Temp Dewpoint Dewpoint Depression Visibility Wind Speed Wind Dir Waves Ship Positions

Federal Oshima

Last reported at 2015-Aug-24 22:16 UTC. Time now 2015-Aug-27 21:27 UTC.
Position N 37°55' E 017°25'.

Length 200 m; draft 8.1 m.

Type: Cargo ship. MMSI: 477675000.

Date/timePositionNaut miles runAvg speedWind from/ knotsBaromVisibWave heightAir tempDewpointWater temp
2015-Aug-24 22:16N 37°55' E 017°25'2111.9
2015-Aug-24 20:32N 37°43' E 017°04'1812.8
2015-Aug-24 19:06N 37°33' E 016°44'3312.6
2015-Aug-24 16:32N 37°11' E 016°14'1313.1
2015-Aug-24 15:33N 37°02' E 016°03'1313.2
2015-Aug-24 14:33N 36°52' E 015°52'1312.9
2015-Aug-24 13:32N 36°41' E 015°43'2812.5
2015-Aug-24 11:18N 36°20' E 015°20'912.7
2015-Aug-24 10:33N 36°19' E 015°08'1313.3
2015-Aug-24 09:33N 36°19' E 014°52'1312.6
2015-Aug-24 08:32N 36°20' E 014°36'1212.1
2015-Aug-24 07:33N 36°22' E 014°21'1212.2
2015-Aug-24 06:33N 36°25' E 014°06'1212.4
2015-Aug-24 05:33N 36°29' E 013°52'1312.7
2015-Aug-24 04:33N 36°33' E 013°37'1312.7
2015-Aug-24 03:33N 36°37' E 013°22'1312.7
2015-Aug-24 02:33N 36°40' E 013°07'1312.6
2015-Aug-24 01:33N 36°44' E 012°52'1312.9
2015-Aug-24 00:33N 36°49' E 012°37'1313.1
2015-Aug-23 23:33N 36°53' E 012°21'1312.9
2015-Aug-23 22:33N 36°56' E 012°06'1212.3
2015-Aug-23 21:33N 37°03' E 011°53'1212.2
2015-Aug-23 20:33N 37°10' E 011°40'1312.1
2015-Aug-23 19:30N 37°16' E 011°26'1111.9
2015-Aug-23 18:33N 37°21' E 011°13'1211.9
2015-Aug-23 17:33N 37°27' E 011°00'1212.0
2015-Aug-23 16:33N 37°30' E 010°45'1212.1
2015-Aug-23 15:33N 37°32' E 010°30'11813.0
2015-Aug-23 06:31N 37°36' E 008°02'1212.4
2015-Aug-23 05:31N 37°34' E 007°47'9712.1
2015-Aug-22 21:31N 37°23' E 005°46'1212.2
2015-Aug-22 20:33N 37°21' E 005°31'1712.0
2015-Aug-22 19:11N 37°19' E 005°10'2012.1
2015-Aug-22 17:33N 37°17' E 004°46'1211.9
2015-Aug-22 16:31N 37°15' E 004°30'1211.8
2015-Aug-22 15:31N 37°13' E 004°16'1212.0
2015-Aug-22 14:33N 37°12' E 004°01'1211.9
2015-Aug-22 13:33N 37°10' E 003°47'1512.2
2015-Aug-22 12:18N 37°08' E 003°28'912.2
2015-Aug-22 11:33N 37°07' E 003°16'1313.3
2015-Aug-22 10:33N 37°05' E 002°60'1212.2
2015-Aug-22 09:33N 37°03' E 002°45'1212.1
2015-Aug-22 08:33N 37°01' E 002°30'1311.9
2015-Aug-22 07:28N 36°59' E 002°14'1111.5
2015-Aug-22 06:33N 36°57' E 002°01'1111.4
2015-Aug-22 05:33N 36°55' E 001°47'1111.3
2015-Aug-22 04:33N 36°53' E 001°33'1111.4
2015-Aug-22 03:33N 36°51' E 001°19'1311.9
2015-Aug-22 02:26N 36°48' E 001°02'1112.3
2015-Aug-22 01:33N 36°47' E 000°49'1312.7
2015-Aug-22 00:33N 36°44' E 000°33'1211.8
2015-Aug-21 23:33N 36°43' E 000°19'1211.7
2015-Aug-21 22:33N 36°41' E 000°04'1211.8
2015-Aug-21 21:31N 36°39' W 000°11'1111.7
2015-Aug-21 20:33N 36°37' W 000°24'1311.8
2015-Aug-21 19:29N 36°34' W 000°40'1111.5
2015-Aug-21 18:33N 36°32' W 000°53'1111.5
2015-Aug-21 17:33N 36°31' W 001°07'1211.2
2015-Aug-21 16:29N 36°28' W 001°22'2311.4
2015-Aug-21 14:27N 36°24' W 001°50'3411.0
2015-Aug-21 11:21N 36°19' W 002°32'37111.7
2015-Aug-20 03:32N 36°09' W 010°11'1111.6
2015-Aug-20 02:33N 36°18' W 010°03'1010.0
2015-Aug-20 01:33N 36°27' W 010°09'1212.5
2015-Aug-20 00:33N 36°34' W 010°22'1312.5
2015-Aug-19 23:33N 36°41' W 010°35'1312.3
2015-Aug-19 22:30N 36°48' W 010°48'1212.2
2015-Aug-19 21:32N 36°55' W 010°60'1212.3
2015-Aug-19 20:33N 37°02' W 011°13'1211.8
2015-Aug-19 19:33N 37°08' W 011°25'1211.9
2015-Aug-19 18:33N 37°15' W 011°37'1211.9
2015-Aug-19 17:33N 37°22' W 011°49'1211.8
2015-Aug-19 16:33N 37°30' W 012°01'1211.8
2015-Aug-19 15:33N 37°36' W 012°13'1111.4
2015-Aug-19 14:33N 37°42' W 012°25'11011.8
2015-Aug-19 05:15N 38°44' W 014°20'  

Dump ship's entire track history